sensor_id;sensor_type;location;lat;lon;timestamp;pressure;altitude;pressure_sealevel;temperature;humidity
29359;BME280;16347;53.232;6.556;2023-09-12T00:02:10;101277.81;;;25.05;59.63
29359;BME280;16347;53.232;6.556;2023-09-12T00:04:37;101266.59;;;25.00;59.50
29359;BME280;16347;53.232;6.556;2023-09-12T00:07:05;101252.41;;;25.01;59.90
29359;BME280;16347;53.232;6.556;2023-09-12T00:09:34;101251.19;;;25.09;59.90
29359;BME280;16347;53.232;6.556;2023-09-12T00:12:04;101262.81;;;25.06;59.55
29359;BME280;16347;53.232;6.556;2023-09-12T00:14:32;101259.81;;;25.08;59.96
29359;BME280;16347;53.232;6.556;2023-09-12T00:17:00;101254.59;;;25.11;59.72
29359;BME280;16347;53.232;6.556;2023-09-12T00:19:28;101268.03;;;25.14;59.77
29359;BME280;16347;53.232;6.556;2023-09-12T00:21:56;101248.06;;;25.17;59.81
29359;BME280;16347;53.232;6.556;2023-09-12T00:24:23;101232.06;;;25.24;59.67
29359;BME280;16347;53.232;6.556;2023-09-12T00:26:51;101216.81;;;25.27;59.55
29359;BME280;16347;53.232;6.556;2023-09-12T00:29:21;101225.59;;;25.35;59.41
29359;BME280;16347;53.232;6.556;2023-09-12T00:31:48;101226.91;;;25.44;59.49
29359;BME280;16347;53.232;6.556;2023-09-12T00:34:16;101228.09;;;25.48;58.59
29359;BME280;16347;53.232;6.556;2023-09-12T00:36:44;101227.41;;;25.41;58.60
29359;BME280;16347;53.232;6.556;2023-09-12T00:39:12;101214.22;;;25.37;59.07
29359;BME280;16347;53.232;6.556;2023-09-12T00:41:40;101207.38;;;25.16;58.63
29359;BME280;16347;53.232;6.556;2023-09-12T00:44:10;101205.81;;;25.20;59.00
29359;BME280;16347;53.232;6.556;2023-09-12T00:46:39;101203.59;;;25.22;59.10
29359;BME280;16347;53.232;6.556;2023-09-12T00:49:07;101203.25;;;25.19;59.34
29359;BME280;16347;53.232;6.556;2023-09-12T00:51:36;101209.59;;;25.14;59.32
29359;BME280;16347;53.232;6.556;2023-09-12T00:54:05;101221.44;;;25.10;59.32
29359;BME280;16347;53.232;6.556;2023-09-12T00:56:33;101223.75;;;25.01;59.34
29359;BME280;16347;53.232;6.556;2023-09-12T00:59:02;101218.56;;;24.93;59.69
29359;BME280;16347;53.232;6.556;2023-09-12T01:01:31;101230.06;;;24.96;60.05
29359;BME280;16347;53.232;6.556;2023-09-12T01:04:01;101226.69;;;24.94;59.69
29359;BME280;16347;53.232;6.556;2023-09-12T01:06:31;101227.03;;;24.86;59.99
29359;BME280;16347;53.232;6.556;2023-09-12T01:09:01;101221.72;;;24.85;60.10
29359;BME280;16347;53.232;6.556;2023-09-12T01:11:30;101223.75;;;24.66;60.53
29359;BME280;16347;53.232;6.556;2023-09-12T01:13:58;101225.81;;;24.82;61.00
29359;BME280;16347;53.232;6.556;2023-09-12T01:16:26;101227.50;;;24.95;61.06
29359;BME280;16347;53.232;6.556;2023-09-12T01:18:54;101223.63;;;24.96;60.31
29359;BME280;16347;53.232;6.556;2023-09-12T01:22:01;101218.56;;;24.93;59.79
29359;BME280;16347;53.232;6.556;2023-09-12T01:24:52;101215.91;;;24.98;60.32
29359;BME280;16347;53.232;6.556;2023-09-12T01:27:35;101222.06;;;25.00;59.62
29359;BME280;16347;53.232;6.556;2023-09-12T01:30:05;101220.97;;;25.01;60.18
29359;BME280;16347;53.232;6.556;2023-09-12T01:32:34;101217.22;;;25.07;59.73
29359;BME280;16347;53.232;6.556;2023-09-12T01:35:03;101212.59;;;25.13;59.93
29359;BME280;16347;53.232;6.556;2023-09-12T01:37:31;101208.09;;;25.23;59.92
29359;BME280;16347;53.232;6.556;2023-09-12T01:39:59;101222.75;;;25.19;58.73
29359;BME280;16347;53.232;6.556;2023-09-12T01:42:34;101222.50;;;25.20;59.27
29359;BME280;16347;53.232;6.556;2023-09-12T01:45:05;101229.28;;;25.24;59.52
29359;BME280;16347;53.232;6.556;2023-09-12T01:47:34;101216.53;;;25.28;59.25
29359;BME280;16347;53.232;6.556;2023-09-12T01:50:04;101234.34;;;25.27;59.29
29359;BME280;16347;53.232;6.556;2023-09-12T01:52:35;101234.94;;;25.29;58.95
29359;BME280;16347;53.232;6.556;2023-09-12T01:55:05;101230.13;;;25.25;58.70
29359;BME280;16347;53.232;6.556;2023-09-12T01:57:37;101235.06;;;25.23;58.98
29359;BME280;16347;53.232;6.556;2023-09-12T02:00:07;101226.78;;;25.11;58.28
29359;BME280;16347;53.232;6.556;2023-09-12T02:02:35;101231.75;;;24.97;59.02
29359;BME280;16347;53.232;6.556;2023-09-12T02:05:07;101225.06;;;24.98;59.29
29359;BME280;16347;53.232;6.556;2023-09-12T02:07:38;101222.69;;;24.90;60.04
29359;BME280;16347;53.232;6.556;2023-09-12T02:10:07;101219.41;;;24.93;60.60
29359;BME280;16347;53.232;6.556;2023-09-12T02:12:37;101219.38;;;25.05;60.07
29359;BME280;16347;53.232;6.556;2023-09-12T02:15:07;101222.03;;;25.12;59.66
29359;BME280;16347;53.232;6.556;2023-09-12T02:17:35;101218.91;;;25.08;58.41
29359;BME280;16347;53.232;6.556;2023-09-12T02:20:07;101215.41;;;25.01;58.74
29359;BME280;16347;53.232;6.556;2023-09-12T02:22:35;101225.56;;;24.95;59.37
29359;BME280;16347;53.232;6.556;2023-09-12T02:25:05;101230.28;;;24.95;59.15
29359;BME280;16347;53.232;6.556;2023-09-12T02:27:33;101230.63;;;24.98;60.06
29359;BME280;16347;53.232;6.556;2023-09-12T02:30:03;101227.13;;;25.03;59.40
29359;BME280;16347;53.232;6.556;2023-09-12T02:32:31;101227.72;;;25.05;59.00
29359;BME280;16347;53.232;6.556;2023-09-12T02:34:59;101225.78;;;25.06;59.14
29359;BME280;16347;53.232;6.556;2023-09-12T02:37:27;101234.91;;;24.89;58.74
29359;BME280;16347;53.232;6.556;2023-09-12T02:39:55;101238.84;;;24.82;59.05
29359;BME280;16347;53.232;6.556;2023-09-12T02:42:23;101246.16;;;24.83;58.85
29359;BME280;16347;53.232;6.556;2023-09-12T02:44:51;101238.00;;;24.81;59.18
29359;BME280;16347;53.232;6.556;2023-09-12T02:47:21;101236.94;;;24.82;59.08
29359;BME280;16347;53.232;6.556;2023-09-12T02:49:49;101238.84;;;24.82;59.32
29359;BME280;16347;53.232;6.556;2023-09-12T02:52:17;101229.47;;;24.83;59.03
29359;BME280;16347;53.232;6.556;2023-09-12T02:54:45;101234.25;;;24.76;58.56
29359;BME280;16347;53.232;6.556;2023-09-12T02:57:13;101232.81;;;24.62;59.09
29359;BME280;16347;53.232;6.556;2023-09-12T02:59:40;101243.31;;;24.48;60.00
29359;BME280;16347;53.232;6.556;2023-09-12T03:02:08;101244.44;;;24.47;59.31
29359;BME280;16347;53.232;6.556;2023-09-12T03:04:38;101237.41;;;24.33;60.08
29359;BME280;16347;53.232;6.556;2023-09-12T03:07:05;101229.28;;;24.31;60.30
29359;BME280;16347;53.232;6.556;2023-09-12T03:09:33;101223.00;;;24.24;60.35
29359;BME280;16347;53.232;6.556;2023-09-12T03:12:01;101227.00;;;24.28;61.54
29359;BME280;16347;53.232;6.556;2023-09-12T03:14:31;101229.78;;;24.40;61.05
29359;BME280;16347;53.232;6.556;2023-09-12T03:16:59;101217.00;;;24.50;60.39
29359;BME280;16347;53.232;6.556;2023-09-12T03:19:27;101225.56;;;24.37;60.31
29359;BME280;16347;53.232;6.556;2023-09-12T03:21:58;101222.41;;;24.45;60.30
29359;BME280;16347;53.232;6.556;2023-09-12T03:24:26;101219.91;;;24.44;60.40
29359;BME280;16347;53.232;6.556;2023-09-12T03:26:55;101232.09;;;24.43;60.40
29359;BME280;16347;53.232;6.556;2023-09-12T03:29:23;101233.28;;;24.35;60.24
29359;BME280;16347;53.232;6.556;2023-09-12T03:31:51;101227.88;;;24.40;59.75
29359;BME280;16347;53.232;6.556;2023-09-12T03:34:19;101224.81;;;23.89;61.18
29359;BME280;16347;53.232;6.556;2023-09-12T03:36:47;101219.28;;;23.89;61.30
29359;BME280;16347;53.232;6.556;2023-09-12T03:39:16;101222.84;;;23.78;62.13
29359;BME280;16347;53.232;6.556;2023-09-12T03:41:44;101211.53;;;23.91;62.23
29359;BME280;16347;53.232;6.556;2023-09-12T03:44:12;101217.63;;;23.99;61.65
29359;BME280;16347;53.232;6.556;2023-09-12T03:46:40;101202.50;;;23.95;61.67
29359;BME280;16347;53.232;6.556;2023-09-12T03:49:08;101206.19;;;23.78;61.83
29359;BME280;16347;53.232;6.556;2023-09-12T03:51:36;101192.94;;;23.80;62.25
29359;BME280;16347;53.232;6.556;2023-09-12T03:54:05;101207.34;;;23.59;61.97
29359;BME280;16347;53.232;6.556;2023-09-12T03:56:34;101201.22;;;23.68;61.51
29359;BME280;16347;53.232;6.556;2023-09-12T03:59:02;101213.38;;;23.67;61.45
29359;BME280;16347;53.232;6.556;2023-09-12T04:01:30;101208.88;;;23.55;62.04
29359;BME280;16347;53.232;6.556;2023-09-12T04:03:58;101208.44;;;23.21;62.72
29359;BME280;16347;53.232;6.556;2023-09-12T04:06:30;101210.91;;;23.29;63.01
29359;BME280;16347;53.232;6.556;2023-09-12T04:08:58;101212.97;;;23.34;63.61
29359;BME280;16347;53.232;6.556;2023-09-12T04:11:26;101216.13;;;23.37;63.92
29359;BME280;16347;53.232;6.556;2023-09-12T04:14:13;101212.59;;;23.48;63.26
29359;BME280;16347;53.232;6.556;2023-09-12T04:16:41;101207.22;;;23.65;63.64
29359;BME280;16347;53.232;6.556;2023-09-12T04:19:10;101204.50;;;23.77;62.43
29359;BME280;16347;53.232;6.556;2023-09-12T04:21:37;101199.06;;;23.82;62.23
29359;BME280;16347;53.232;6.556;2023-09-12T04:24:06;101204.31;;;23.90;61.45
29359;BME280;16347;53.232;6.556;2023-09-12T04:26:34;101205.97;;;23.91;61.63
29359;BME280;16347;53.232;6.556;2023-09-12T04:29:03;101202.88;;;23.99;61.42
29359;BME280;16347;53.232;6.556;2023-09-12T04:31:32;101208.19;;;24.00;60.84
29359;BME280;16347;53.232;6.556;2023-09-12T04:34:01;101207.72;;;24.04;60.18
29359;BME280;16347;53.232;6.556;2023-09-12T04:36:28;101204.31;;;24.01;60.49
29359;BME280;16347;53.232;6.556;2023-09-12T04:38:56;101199.28;;;24.10;61.17
29359;BME280;16347;53.232;6.556;2023-09-12T04:41:24;101202.91;;;24.11;60.33
29359;BME280;16347;53.232;6.556;2023-09-12T04:43:51;101202.28;;;24.09;60.44
29359;BME280;16347;53.232;6.556;2023-09-12T04:46:19;101201.44;;;23.96;60.15
29359;BME280;16347;53.232;6.556;2023-09-12T04:48:48;101198.47;;;23.80;60.66
29359;BME280;16347;53.232;6.556;2023-09-12T04:51:16;101208.38;;;23.46;61.76
29359;BME280;16347;53.232;6.556;2023-09-12T04:53:44;101200.50;;;23.25;62.29
29359;BME280;16347;53.232;6.556;2023-09-12T04:56:14;101192.72;;;23.33;62.67
29359;BME280;16347;53.232;6.556;2023-09-12T04:58:42;101189.31;;;23.31;62.98
29359;BME280;16347;53.232;6.556;2023-09-12T05:01:10;101195.03;;;23.36;63.17
29359;BME280;16347;53.232;6.556;2023-09-12T05:03:39;101196.19;;;23.29;62.93
29359;BME280;16347;53.232;6.556;2023-09-12T05:06:08;101201.88;;;23.34;62.98
29359;BME280;16347;53.232;6.556;2023-09-12T05:08:37;101211.28;;;23.33;62.84
29359;BME280;16347;53.232;6.556;2023-09-12T05:11:06;101206.06;;;23.25;63.42
29359;BME280;16347;53.232;6.556;2023-09-12T05:13:34;101213.06;;;23.27;63.31
29359;BME280;16347;53.232;6.556;2023-09-12T05:16:02;101209.75;;;23.19;63.23
29359;BME280;16347;53.232;6.556;2023-09-12T05:18:30;101206.81;;;23.14;63.64
29359;BME280;16347;53.232;6.556;2023-09-12T05:20:58;101204.78;;;23.09;63.56
29359;BME280;16347;53.232;6.556;2023-09-12T05:23:27;101207.69;;;23.14;63.23
29359;BME280;16347;53.232;6.556;2023-09-12T05:25:56;101209.00;;;23.12;63.44
29359;BME280;16347;53.232;6.556;2023-09-12T05:28:26;101211.94;;;23.17;63.86
29359;BME280;16347;53.232;6.556;2023-09-12T05:30:54;101224.03;;;23.22;63.27
29359;BME280;16347;53.232;6.556;2023-09-12T05:33:23;101229.09;;;23.25;63.72
29359;BME280;16347;53.232;6.556;2023-09-12T05:35:51;101226.47;;;23.30;62.65
29359;BME280;16347;53.232;6.556;2023-09-12T05:38:18;101222.66;;;23.13;63.10
29359;BME280;16347;53.232;6.556;2023-09-12T05:40:48;101224.41;;;23.08;63.77
29359;BME280;16347;53.232;6.556;2023-09-12T05:43:17;101218.53;;;22.97;63.71
29359;BME280;16347;53.232;6.556;2023-09-12T05:45:45;101225.34;;;23.02;63.89
29359;BME280;16347;53.232;6.556;2023-09-12T05:48:13;101226.56;;;23.06;63.79
29359;BME280;16347;53.232;6.556;2023-09-12T05:50:41;101238.75;;;22.86;64.40
29359;BME280;16347;53.232;6.556;2023-09-12T05:53:09;101240.09;;;22.77;64.08
29359;BME280;16347;53.232;6.556;2023-09-12T05:55:37;101238.34;;;22.83;64.45
29359;BME280;16347;53.232;6.556;2023-09-12T05:58:06;101246.19;;;22.68;64.56
29359;BME280;16347;53.232;6.556;2023-09-12T06:00:35;101255.03;;;22.52;65.70
29359;BME280;16347;53.232;6.556;2023-09-12T06:03:04;101258.38;;;22.60;65.41
29359;BME280;16347;53.232;6.556;2023-09-12T06:05:31;101255.38;;;22.62;65.54
29359;BME280;16347;53.232;6.556;2023-09-12T06:07:59;101261.50;;;22.70;65.75
29359;BME280;16347;53.232;6.556;2023-09-12T06:10:27;101257.16;;;22.56;65.36
29359;BME280;16347;53.232;6.556;2023-09-12T06:12:55;101270.59;;;22.53;65.71
29359;BME280;16347;53.232;6.556;2023-09-12T06:15:24;101267.09;;;22.39;66.26
29359;BME280;16347;53.232;6.556;2023-09-12T06:17:52;101268.91;;;22.52;65.92
29359;BME280;16347;53.232;6.556;2023-09-12T06:20:20;101260.19;;;22.48;66.29
29359;BME280;16347;53.232;6.556;2023-09-12T06:22:49;101254.38;;;22.56;66.60
29359;BME280;16347;53.232;6.556;2023-09-12T06:25:17;101256.84;;;22.64;66.62
29359;BME280;16347;53.232;6.556;2023-09-12T06:27:45;101261.03;;;22.73;66.30
29359;BME280;16347;53.232;6.556;2023-09-12T06:30:13;101262.28;;;22.77;66.58
29359;BME280;16347;53.232;6.556;2023-09-12T06:32:43;101253.19;;;22.70;66.21
29359;BME280;16347;53.232;6.556;2023-09-12T06:35:11;101254.88;;;22.71;66.36
29359;BME280;16347;53.232;6.556;2023-09-12T06:37:39;101251.44;;;22.76;66.55
29359;BME280;16347;53.232;6.556;2023-09-12T06:40:07;101249.44;;;22.83;66.90
29359;BME280;16347;53.232;6.556;2023-09-12T06:42:35;101250.16;;;22.96;66.78
29359;BME280;16347;53.232;6.556;2023-09-12T06:45:04;101242.19;;;23.00;65.57
29359;BME280;16347;53.232;6.556;2023-09-12T06:47:32;101238.59;;;22.99;65.97
29359;BME280;16347;53.232;6.556;2023-09-12T06:50:01;101243.75;;;22.96;65.79
29359;BME280;16347;53.232;6.556;2023-09-12T06:52:32;101246.34;;;22.91;65.73
29359;BME280;16347;53.232;6.556;2023-09-12T06:54:59;101241.28;;;22.88;66.04
29359;BME280;16347;53.232;6.556;2023-09-12T06:57:27;101238.47;;;22.70;66.33
29359;BME280;16347;53.232;6.556;2023-09-12T06:59:55;101241.41;;;22.75;66.57
29359;BME280;16347;53.232;6.556;2023-09-12T07:02:23;101239.63;;;22.80;66.15
29359;BME280;16347;53.232;6.556;2023-09-12T07:04:51;101244.69;;;22.65;66.49
29359;BME280;16347;53.232;6.556;2023-09-12T07:07:20;101237.72;;;22.81;66.63
29359;BME280;16347;53.232;6.556;2023-09-12T07:09:48;101240.34;;;22.76;66.46
29359;BME280;16347;53.232;6.556;2023-09-12T07:12:16;101243.25;;;22.81;66.95
29359;BME280;16347;53.232;6.556;2023-09-12T07:14:44;101250.41;;;22.70;66.63
29359;BME280;16347;53.232;6.556;2023-09-12T07:17:12;101241.28;;;22.63;66.62
29359;BME280;16347;53.232;6.556;2023-09-12T07:19:40;101243.69;;;22.60;66.88
29359;BME280;16347;53.232;6.556;2023-09-12T07:22:10;101244.03;;;22.63;67.00
29359;BME280;16347;53.232;6.556;2023-09-12T07:24:40;101240.22;;;22.64;67.62
29359;BME280;16347;53.232;6.556;2023-09-12T07:27:08;101245.91;;;22.76;67.54
29359;BME280;16347;53.232;6.556;2023-09-12T07:29:35;101255.44;;;22.55;67.63
29359;BME280;16347;53.232;6.556;2023-09-12T07:32:04;101251.03;;;22.47;67.82
29359;BME280;16347;53.232;6.556;2023-09-12T07:34:32;101253.53;;;22.56;68.00
29359;BME280;16347;53.232;6.556;2023-09-12T07:37:00;101255.19;;;22.57;67.96
29359;BME280;16347;53.232;6.556;2023-09-12T07:39:28;101256.91;;;22.58;68.51
29359;BME280;16347;53.232;6.556;2023-09-12T07:41:57;101261.09;;;22.67;68.42
29359;BME280;16347;53.232;6.556;2023-09-12T07:44:28;101262.75;;;22.74;68.44
29359;BME280;16347;53.232;6.556;2023-09-12T07:46:55;101271.25;;;22.79;68.53
29359;BME280;16347;53.232;6.556;2023-09-12T07:49:23;101274.97;;;22.67;68.10
29359;BME280;16347;53.232;6.556;2023-09-12T07:51:52;101276.88;;;22.41;68.44
29359;BME280;16347;53.232;6.556;2023-09-12T07:54:20;101275.63;;;22.37;69.44
29359;BME280;16347;53.232;6.556;2023-09-12T07:56:48;101283.44;;;22.47;69.74
29359;BME280;16347;53.232;6.556;2023-09-12T07:59:18;101292.78;;;22.53;69.91
29359;BME280;16347;53.232;6.556;2023-09-12T08:01:45;101287.50;;;22.44;70.05
29359;BME280;16347;53.232;6.556;2023-09-12T08:04:13;101293.25;;;22.49;69.75
29359;BME280;16347;53.232;6.556;2023-09-12T08:06:42;101292.72;;;22.59;69.84
29359;BME280;16347;53.232;6.556;2023-09-12T08:09:23;101293.25;;;22.49;70.28
29359;BME280;16347;53.232;6.556;2023-09-12T08:11:51;101297.88;;;22.56;70.23
29359;BME280;16347;53.232;6.556;2023-09-12T08:14:20;101298.66;;;22.63;70.16
29359;BME280;16347;53.232;6.556;2023-09-12T08:16:48;101303.56;;;22.61;70.47
29359;BME280;16347;53.232;6.556;2023-09-12T08:19:16;101310.72;;;22.75;70.33
29359;BME280;16347;53.232;6.556;2023-09-12T08:21:45;101311.72;;;22.80;69.85
29359;BME280;16347;53.232;6.556;2023-09-12T08:24:13;101302.75;;;22.85;69.46
29359;BME280;16347;53.232;6.556;2023-09-12T08:26:41;101306.78;;;22.58;69.95
29359;BME280;16347;53.232;6.556;2023-09-12T08:29:09;101316.34;;;22.68;69.95
29359;BME280;16347;53.232;6.556;2023-09-12T08:31:38;101315.81;;;22.78;70.00
29359;BME280;16347;53.232;6.556;2023-09-12T08:34:06;101313.59;;;22.62;70.21
29359;BME280;16347;53.232;6.556;2023-09-12T08:36:34;101314.91;;;22.59;70.37
29359;BME280;16347;53.232;6.556;2023-09-12T08:39:03;101318.53;;;22.60;70.41
29359;BME280;16347;53.232;6.556;2023-09-12T08:41:31;101313.13;;;22.65;70.74
29359;BME280;16347;53.232;6.556;2023-09-12T08:44:01;101311.13;;;22.78;70.59
29359;BME280;16347;53.232;6.556;2023-09-12T08:46:29;101312.72;;;22.68;70.03
29359;BME280;16347;53.232;6.556;2023-09-12T08:48:58;101315.41;;;22.74;70.06
29359;BME280;16347;53.232;6.556;2023-09-12T08:51:26;101309.94;;;22.92;70.32
29359;BME280;16347;53.232;6.556;2023-09-12T08:53:54;101309.16;;;23.04;68.99
29359;BME280;16347;53.232;6.556;2023-09-12T08:56:22;101315.72;;;23.09;69.18
29359;BME280;16347;53.232;6.556;2023-09-12T08:58:54;101313.94;;;23.15;68.36
29359;BME280;16347;53.232;6.556;2023-09-12T09:01:22;101315.41;;;23.17;68.53
29359;BME280;16347;53.232;6.556;2023-09-12T09:03:52;101319.66;;;23.20;68.25
29359;BME280;16347;53.232;6.556;2023-09-12T09:06:22;101332.69;;;23.19;68.34
29359;BME280;16347;53.232;6.556;2023-09-12T09:08:51;101330.19;;;23.11;68.48
29359;BME280;16347;53.232;6.556;2023-09-12T09:11:18;101319.41;;;23.03;68.19
29359;BME280;16347;53.232;6.556;2023-09-12T09:13:46;101324.91;;;23.10;68.66
29359;BME280;16347;53.232;6.556;2023-09-12T09:16:16;101320.81;;;23.12;68.53
29359;BME280;16347;53.232;6.556;2023-09-12T09:18:53;101322.28;;;23.15;68.59
29359;BME280;16347;53.232;6.556;2023-09-12T09:21:24;101319.50;;;23.15;68.36
29359;BME280;16347;53.232;6.556;2023-09-12T09:23:52;101318.31;;;23.04;68.56
29359;BME280;16347;53.232;6.556;2023-09-12T09:26:21;101313.69;;;22.98;68.73
29359;BME280;16347;53.232;6.556;2023-09-12T09:29:04;101319.09;;;23.11;68.95
29359;BME280;16347;53.232;6.556;2023-09-12T09:31:31;101323.81;;;23.11;68.86
29359;BME280;16347;53.232;6.556;2023-09-12T09:34:01;101324.25;;;23.08;68.65
29359;BME280;16347;53.232;6.556;2023-09-12T09:36:32;101316.03;;;23.19;68.65
29359;BME280;16347;53.232;6.556;2023-09-12T09:39:02;101310.56;;;23.13;68.73
29359;BME280;16347;53.232;6.556;2023-09-12T09:41:31;101324.22;;;23.32;68.65
29359;BME280;16347;53.232;6.556;2023-09-12T09:44:00;101314.06;;;23.26;68.08
29359;BME280;16347;53.232;6.556;2023-09-12T09:46:28;101311.75;;;23.41;68.33
29359;BME280;16347;53.232;6.556;2023-09-12T09:48:56;101312.31;;;23.50;68.12
29359;BME280;16347;53.232;6.556;2023-09-12T09:51:26;101309.84;;;23.42;67.53
29359;BME280;16347;53.232;6.556;2023-09-12T09:53:55;101308.25;;;23.28;67.95
29359;BME280;16347;53.232;6.556;2023-09-12T09:56:25;101302.25;;;23.13;67.96
29359;BME280;16347;53.232;6.556;2023-09-12T09:58:55;101313.34;;;23.13;68.42
29359;BME280;16347;53.232;6.556;2023-09-12T10:01:27;101315.41;;;23.17;68.95
29359;BME280;16347;53.232;6.556;2023-09-12T10:03:58;101322.75;;;23.30;68.33
29359;BME280;16347;53.232;6.556;2023-09-12T10:06:27;101313.97;;;23.33;67.62
29359;BME280;16347;53.232;6.556;2023-09-12T10:08:58;101317.13;;;23.36;68.08
29359;BME280;16347;53.232;6.556;2023-09-12T10:11:28;101309.06;;;23.53;67.85
29359;BME280;16347;53.232;6.556;2023-09-12T10:14:02;101311.50;;;23.61;67.60
29359;BME280;16347;53.232;6.556;2023-09-12T10:16:32;101310.13;;;23.70;67.39
29359;BME280;16347;53.232;6.556;2023-09-12T10:19:06;101314.56;;;23.71;67.02
29359;BME280;16347;53.232;6.556;2023-09-12T10:21:41;101309.75;;;23.67;66.41
29359;BME280;16347;53.232;6.556;2023-09-12T10:24:15;101313.81;;;23.64;66.67
29359;BME280;16347;53.232;6.556;2023-09-12T10:26:43;101308.25;;;23.64;66.71
29359;BME280;16347;53.232;6.556;2023-09-12T10:29:13;101308.03;;;23.66;66.98
29359;BME280;16347;53.232;6.556;2023-09-12T10:31:41;101313.78;;;23.82;66.93
29359;BME280;16347;53.232;6.556;2023-09-12T10:34:12;101313.63;;;23.77;66.34
29359;BME280;16347;53.232;6.556;2023-09-12T10:36:45;101314.25;;;23.79;66.30
29359;BME280;16347;53.232;6.556;2023-09-12T10:39:19;101307.19;;;23.95;66.24
29359;BME280;16347;53.232;6.556;2023-09-12T10:41:47;101305.50;;;23.94;65.53
29359;BME280;16347;53.232;6.556;2023-09-12T10:44:17;101306.06;;;23.84;65.86
29359;BME280;16347;53.232;6.556;2023-09-12T10:46:46;101303.16;;;23.79;65.85
29359;BME280;16347;53.232;6.556;2023-09-12T10:49:16;101295.72;;;23.91;65.48
29359;BME280;16347;53.232;6.556;2023-09-12T10:51:44;101292.13;;;24.02;65.56
29359;BME280;16347;53.232;6.556;2023-09-12T10:54:14;101296.09;;;24.13;64.73
29359;BME280;16347;53.232;6.556;2023-09-12T10:56:44;101300.97;;;24.11;64.10
29359;BME280;16347;53.232;6.556;2023-09-12T10:59:17;101307.47;;;24.05;64.32
29359;BME280;16347;53.232;6.556;2023-09-12T11:01:45;101296.28;;;24.12;64.25
29359;BME280;16347;53.232;6.556;2023-09-12T11:04:31;101295.38;;;24.29;64.12
29359;BME280;16347;53.232;6.556;2023-09-12T11:07:00;101294.44;;;24.35;64.25
29359;BME280;16347;53.232;6.556;2023-09-12T11:09:29;101293.94;;;24.38;64.06
29359;BME280;16347;53.232;6.556;2023-09-12T11:12:03;101293.84;;;24.45;63.15
29359;BME280;16347;53.232;6.556;2023-09-12T11:14:34;101285.28;;;24.46;62.18
29359;BME280;16347;53.232;6.556;2023-09-12T11:17:24;101295.66;;;24.39;61.32
29359;BME280;16347;53.232;6.556;2023-09-12T11:19:53;101288.97;;;24.29;62.25
29359;BME280;16347;53.232;6.556;2023-09-12T11:22:25;101290.47;;;24.43;63.04
29359;BME280;16347;53.232;6.556;2023-09-12T11:24:54;101295.44;;;24.52;63.00
29359;BME280;16347;53.232;6.556;2023-09-12T11:27:30;101294.44;;;24.35;63.65
29359;BME280;16347;53.232;6.556;2023-09-12T11:30:03;101297.13;;;24.54;63.95
29359;BME280;16347;53.232;6.556;2023-09-12T11:32:34;101292.28;;;24.49;62.77
29359;BME280;16347;53.232;6.556;2023-09-12T11:35:05;101297.13;;;24.54;62.15
29359;BME280;16347;53.232;6.556;2023-09-12T11:37:34;101284.53;;;24.39;62.12
29359;BME280;16347;53.232;6.556;2023-09-12T11:40:15;101279.72;;;24.46;62.52
29359;BME280;16347;53.232;6.556;2023-09-12T11:42:45;101281.41;;;24.47;62.79
29359;BME280;16347;53.232;6.556;2023-09-12T11:45:17;101280.56;;;24.59;62.05
29359;BME280;16347;53.232;6.556;2023-09-12T11:47:46;101280.81;;;24.69;62.01
29359;BME280;16347;53.232;6.556;2023-09-12T11:50:28;101277.97;;;24.87;62.24
29359;BME280;16347;53.232;6.556;2023-09-12T11:53:00;101288.00;;;24.99;61.94
29359;BME280;16347;53.232;6.556;2023-09-12T11:55:31;101282.31;;;24.94;60.83
29359;BME280;16347;53.232;6.556;2023-09-12T11:58:00;101280.84;;;24.80;61.34
29359;BME280;16347;53.232;6.556;2023-09-12T12:00:29;101285.94;;;24.95;60.86
29359;BME280;16347;53.232;6.556;2023-09-12T12:02:57;101284.72;;;25.02;61.01
29359;BME280;16347;53.232;6.556;2023-09-12T12:05:25;101287.16;;;25.11;60.16
29359;BME280;16347;53.232;6.556;2023-09-12T12:07:54;101284.59;;;25.09;59.70
29359;BME280;16347;53.232;6.556;2023-09-12T12:10:41;101275.63;;;25.19;59.70
29359;BME280;16347;53.232;6.556;2023-09-12T12:13:15;101278.66;;;25.17;59.89
29359;BME280;16347;53.232;6.556;2023-09-12T12:15:43;101277.31;;;25.31;59.33
29359;BME280;16347;53.232;6.556;2023-09-12T12:18:11;101275.00;;;25.28;58.99
29359;BME280;16347;53.232;6.556;2023-09-12T12:20:39;101273.31;;;25.27;59.03
29359;BME280;16347;53.232;6.556;2023-09-12T12:23:07;101273.28;;;25.39;58.91
29359;BME280;16347;53.232;6.556;2023-09-12T12:25:35;101261.56;;;25.25;59.63
29359;BME280;16347;53.232;6.556;2023-09-12T12:28:03;101259.28;;;25.22;59.94
29359;BME280;16347;53.232;6.556;2023-09-12T12:30:34;101266.91;;;25.15;59.65
29359;BME280;16347;53.232;6.556;2023-09-12T12:33:07;101268.13;;;25.19;59.41
29359;BME280;16347;53.232;6.556;2023-09-12T12:36:01;101272.00;;;25.07;59.38
29359;BME280;16347;53.232;6.556;2023-09-12T12:38:33;101287.03;;;24.94;62.71
29359;BME280;16347;53.232;6.556;2023-09-12T12:41:04;101279.31;;;24.84;60.55
29359;BME280;16347;53.232;6.556;2023-09-12T12:43:32;101277.91;;;24.75;60.66
29359;BME280;16347;53.232;6.556;2023-09-12T12:46:02;101282.75;;;24.80;61.38
29359;BME280;16347;53.232;6.556;2023-09-12T12:48:31;101283.00;;;24.78;62.15
29359;BME280;16347;53.232;6.556;2023-09-12T12:51:01;101269.84;;;24.74;62.39
29359;BME280;16347;53.232;6.556;2023-09-12T12:53:40;101269.56;;;24.75;63.79
29359;BME280;16347;53.232;6.556;2023-09-12T12:56:21;101259.66;;;24.79;64.60
29359;BME280;16347;53.232;6.556;2023-09-12T12:58:51;101262.22;;;24.81;65.82
29359;BME280;16347;53.232;6.556;2023-09-12T13:01:20;101258.13;;;24.83;65.45
29359;BME280;16347;53.232;6.556;2023-09-12T13:03:48;101256.44;;;24.82;65.89